createdAt,value
2018-09-10T00:00:09.107Z,6.20
2018-09-10T00:02:37.901Z,5.93
2018-09-10T00:05:08.434Z,6.13
2018-09-10T00:07:37.239Z,5.93
2018-09-10T00:10:06.192Z,6.13
2018-09-10T00:12:35.030Z,6.70
2018-09-10T00:15:03.966Z,6.60
2018-09-10T00:17:32.735Z,5.93
2018-09-10T00:20:01.550Z,6.60
2018-09-10T00:22:30.324Z,6.23
2018-09-10T00:24:59.081Z,6.90
2018-09-10T00:27:27.931Z,6.20
2018-09-10T00:29:56.660Z,6.27
2018-09-10T00:32:25.495Z,7.10
2018-09-10T00:34:54.292Z,7.37
2018-09-10T00:37:23.039Z,7.57
2018-09-10T00:39:52.263Z,6.67
2018-09-10T00:42:21.059Z,6.80
2018-09-10T00:44:49.878Z,6.20
2018-09-10T00:47:18.656Z,7.03
2018-09-10T00:49:47.424Z,6.57
2018-09-10T00:52:16.236Z,6.87
2018-09-10T00:54:45.116Z,6.47
2018-09-10T00:57:13.948Z,5.93
2018-09-10T00:59:42.732Z,6.10
2018-09-10T01:02:11.543Z,6.00
2018-09-10T01:04:40.314Z,7.87
2018-09-10T01:07:09.101Z,6.97
2018-09-10T01:09:37.914Z,6.63
2018-09-10T01:12:06.717Z,7.20
2018-09-10T01:14:35.505Z,7.07
2018-09-10T01:17:04.303Z,6.97
2018-09-10T01:19:33.110Z,6.50
2018-09-10T01:22:01.938Z,6.90
2018-09-10T01:24:30.750Z,6.80
2018-09-10T01:26:59.529Z,6.93
2018-09-10T01:29:28.371Z,6.50
2018-09-10T01:31:57.158Z,6.83
2018-09-10T01:34:31.310Z,7.60
2018-09-10T01:37:00.112Z,6.67
2018-09-10T01:39:29.332Z,6.40
2018-09-10T01:41:58.113Z,6.93
2018-09-10T01:44:26.916Z,6.63
2018-09-10T01:46:55.720Z,7.10
2018-09-10T01:49:24.526Z,7.77
2018-09-10T01:51:53.298Z,7.90
2018-09-10T01:54:22.116Z,7.17
2018-09-10T01:56:50.890Z,7.50
2018-09-10T01:59:19.743Z,7.80
2018-09-10T02:01:49.432Z,7.13
2018-09-10T02:04:18.291Z,7.43
2018-09-10T02:06:47.120Z,7.93
2018-09-10T02:09:15.976Z,7.63
2018-09-10T02:11:44.754Z,7.27
2018-09-10T02:14:13.548Z,7.50
2018-09-10T02:16:42.355Z,7.10
2018-09-10T02:19:11.173Z,8.03
2018-09-10T02:21:39.999Z,8.67
2018-09-10T02:24:08.740Z,6.93
2018-09-10T02:26:37.508Z,7.90
2018-09-10T02:29:06.525Z,7.10
2018-09-10T02:31:35.597Z,7.37
2018-09-10T02:34:04.423Z,9.10
2018-09-10T02:36:33.243Z,8.33
2018-09-10T02:39:02.187Z,7.20
2018-09-10T02:41:30.994Z,7.97
2018-09-10T02:43:59.791Z,7.13
2018-09-10T02:46:28.592Z,8.60
2018-09-10T02:48:57.538Z,7.63
2018-09-10T02:51:26.406Z,7.70
2018-09-10T02:53:55.174Z,8.67
2018-09-10T02:56:24.013Z,8.93
2018-09-10T02:58:52.872Z,7.63
2018-09-10T03:01:21.702Z,8.87
2018-09-10T03:03:50.535Z,8.10
2018-09-10T03:06:19.370Z,8.00
2018-09-10T03:08:48.506Z,7.77
2018-09-10T03:11:17.340Z,7.43
2018-09-10T03:13:46.131Z,8.50
2018-09-10T03:16:14.950Z,7.57
2018-09-10T03:18:43.743Z,7.80
2018-09-10T03:21:12.524Z,8.20
2018-09-10T03:23:41.399Z,8.03
2018-09-10T03:26:10.192Z,8.13
2018-09-10T03:28:38.965Z,8.63
2018-09-10T03:31:08.359Z,8.60
2018-09-10T03:33:37.218Z,8.47
2018-09-10T03:36:06.208Z,7.27
2018-09-10T03:38:35.071Z,8.70
2018-09-10T03:41:03.863Z,8.50
2018-09-10T03:43:32.636Z,8.80
2018-09-10T03:46:01.496Z,8.07
2018-09-10T03:48:30.300Z,8.27
2018-09-10T03:50:59.191Z,9.30
2018-09-10T03:53:27.961Z,9.17
2018-09-10T03:55:57.000Z,9.30
2018-09-10T03:58:25.816Z,8.67
2018-09-10T04:00:54.615Z,8.37
2018-09-10T04:03:23.445Z,9.23
2018-09-10T04:05:52.210Z,8.57
2018-09-10T04:08:21.051Z,8.97
2018-09-10T04:10:49.826Z,9.07
2018-09-10T04:13:18.915Z,8.63
2018-09-10T04:15:47.888Z,8.53
2018-09-10T04:18:16.647Z,9.00
2018-09-10T04:20:45.418Z,9.37
2018-09-10T04:23:14.307Z,8.43
2018-09-10T04:25:43.181Z,9.37
2018-09-10T04:28:11.989Z,8.93
2018-09-10T04:30:40.816Z,10.33
2018-09-10T04:33:09.805Z,9.40
2018-09-10T04:35:38.576Z,9.00
2018-09-10T04:38:07.351Z,8.30
2018-09-10T04:40:36.111Z,8.93
2018-09-10T04:43:04.916Z,9.70
2018-09-10T04:45:33.711Z,9.57
2018-09-10T04:48:02.494Z,10.07
2018-09-10T04:50:31.276Z,9.97
2018-09-10T04:53:00.052Z,9.73
2018-09-10T04:55:28.870Z,8.53
2018-09-10T04:57:57.717Z,9.73
2018-09-10T05:00:26.883Z,8.50
2018-09-10T05:02:55.696Z,9.23
2018-09-10T05:05:24.522Z,10.33
2018-09-10T05:07:53.320Z,9.20
2018-09-10T05:10:22.079Z,9.10
2018-09-10T05:12:50.844Z,9.77
2018-09-10T05:15:19.681Z,10.37
2018-09-10T05:17:48.519Z,8.50
2018-09-10T05:20:17.302Z,10.90
2018-09-10T05:22:46.077Z,9.13
2018-09-10T05:25:14.892Z,9.40
2018-09-10T05:27:43.884Z,9.70
2018-09-10T05:30:12.775Z,8.93
2018-09-10T05:32:41.574Z,8.70
2018-09-10T05:35:10.363Z,8.57
2018-09-10T05:37:39.151Z,9.37
2018-09-10T05:40:09.378Z,8.13
2018-09-10T05:42:38.176Z,10.00
2018-09-10T05:45:09.376Z,8.33
2018-09-10T05:47:38.224Z,8.67
2018-09-10T05:50:08.003Z,8.97
2018-09-10T05:52:36.936Z,8.97
2018-09-10T05:55:05.841Z,8.23
2018-09-10T05:57:34.732Z,8.43
2018-09-10T06:00:05.439Z,8.53
2018-09-10T06:02:34.218Z,9.27
2018-09-10T06:05:02.993Z,7.30
2018-09-10T06:07:31.716Z,8.70
2018-09-10T06:10:00.486Z,8.10
2018-09-10T06:12:29.313Z,8.37
2018-09-10T06:14:58.102Z,8.33
2018-09-10T06:17:26.981Z,8.03
2018-09-10T06:19:55.788Z,7.33
2018-09-10T06:22:24.603Z,7.30
2018-09-10T06:24:53.362Z,7.13
2018-09-10T06:27:22.207Z,7.60
2018-09-10T06:29:51.015Z,8.13
2018-09-10T06:32:19.831Z,8.67
2018-09-10T06:34:48.662Z,7.37
2018-09-10T06:37:17.498Z,8.70
2018-09-10T06:39:46.475Z,7.10
2018-09-10T06:42:15.449Z,7.13
2018-09-10T06:44:44.234Z,7.80
2018-09-10T06:47:13.026Z,8.07
2018-09-10T06:49:41.812Z,7.63
2018-09-10T06:52:10.662Z,7.67
2018-09-10T06:54:39.479Z,7.10
2018-09-10T06:57:08.353Z,7.73
2018-09-10T06:59:37.145Z,7.40
2018-09-10T07:02:05.912Z,6.53
2018-09-10T07:04:34.781Z,7.57
2018-09-10T07:07:03.672Z,7.70
2018-09-10T07:09:32.942Z,7.90
2018-09-10T07:12:01.796Z,7.07
2018-09-10T07:14:30.656Z,7.83
2018-09-10T07:16:59.488Z,7.20
2018-09-10T07:19:28.279Z,8.50
2018-09-10T07:21:57.055Z,8.67
2018-09-10T07:24:25.821Z,7.93
2018-09-10T07:26:54.618Z,7.50
2018-09-10T07:29:23.402Z,7.97
2018-09-10T07:31:52.282Z,8.80
2018-09-10T07:34:21.076Z,8.23
2018-09-10T07:36:49.905Z,7.20
2018-09-10T07:39:18.718Z,8.00
2018-09-10T07:41:47.547Z,7.83
2018-09-10T07:44:16.397Z,7.60
2018-09-10T07:46:45.370Z,7.90
2018-09-10T07:49:14.634Z,7.70
2018-09-10T07:51:43.433Z,7.53
2018-09-10T07:54:12.334Z,7.97
2018-09-10T07:56:41.127Z,6.87
2018-09-10T07:59:10.356Z,6.70
2018-09-10T08:01:39.147Z,6.93
2018-09-10T08:04:07.913Z,7.23
2018-09-10T08:06:36.681Z,7.70
2018-09-10T08:09:07.805Z,7.07
2018-09-10T08:11:36.868Z,7.00
2018-09-10T08:14:05.739Z,8.03
2018-09-10T08:16:34.813Z,7.30
2018-09-10T08:19:03.905Z,7.07
2018-09-10T08:21:32.712Z,7.23
2018-09-10T08:24:01.589Z,7.63
2018-09-10T08:26:30.588Z,7.07
2018-09-10T08:28:59.404Z,7.47
2018-09-10T08:31:28.183Z,7.53
2018-09-10T08:33:57.233Z,7.33
2018-09-10T08:36:26.046Z,7.00
2018-09-10T08:38:54.910Z,6.30
2018-09-10T08:41:23.747Z,6.23
2018-09-10T08:43:52.600Z,6.67
2018-09-10T08:46:21.485Z,6.60
2018-09-10T08:48:50.285Z,6.47
2018-09-10T08:51:19.124Z,6.90
2018-09-10T08:53:47.970Z,7.17
2018-09-10T08:56:17.070Z,6.80
2018-09-10T08:58:45.800Z,6.97
2018-09-10T09:01:14.622Z,6.33
2018-09-10T09:03:43.537Z,6.20
2018-09-10T09:06:12.415Z,5.90
2018-09-10T09:08:41.401Z,6.67
2018-09-10T09:11:10.459Z,5.80
2018-09-10T09:13:39.300Z,6.33
2018-09-10T09:16:08.125Z,5.77
2018-09-10T09:18:36.941Z,7.07
2018-09-10T09:21:05.758Z,5.77
2018-09-10T09:23:34.734Z,5.77
2018-09-10T09:26:03.679Z,7.30
2018-09-10T09:28:32.491Z,6.40
2018-09-10T09:31:01.308Z,6.23
2018-09-10T09:33:30.102Z,6.40
2018-09-10T09:36:04.270Z,6.40
2018-09-10T09:38:40.043Z,6.37
2018-09-10T09:41:14.160Z,6.07
2018-09-10T09:43:48.096Z,5.97
2018-09-10T09:46:18.723Z,5.60
2018-09-10T09:48:47.522Z,5.70
2018-09-10T09:51:16.664Z,5.13
2018-09-10T09:53:45.570Z,5.30
2018-09-10T09:56:14.476Z,6.67
2018-09-10T09:58:43.284Z,6.43
2018-09-10T10:01:17.199Z,6.70
2018-09-10T10:03:51.146Z,5.80
2018-09-10T10:06:19.948Z,5.47
2018-09-10T10:08:48.719Z,6.40
2018-09-10T10:11:17.570Z,6.67
2018-09-10T10:13:46.522Z,5.97
2018-09-10T10:16:15.300Z,5.30
2018-09-10T10:18:44.427Z,5.80
2018-09-10T10:21:13.240Z,6.40
2018-09-10T10:23:42.104Z,6.93
2018-09-10T10:26:10.915Z,6.57
2018-09-10T10:28:39.691Z,5.93
2018-09-10T10:31:08.436Z,6.13
2018-09-10T10:33:37.224Z,5.67
2018-09-10T10:36:06.062Z,5.40
2018-09-10T10:38:34.862Z,5.87
2018-09-10T10:41:03.596Z,5.67
2018-09-10T10:43:33.247Z,6.50
2018-09-10T10:46:02.128Z,6.77
2018-09-10T10:48:30.981Z,6.10
2018-09-10T10:50:59.907Z,5.10
2018-09-10T10:53:28.732Z,5.50
2018-09-10T10:55:57.615Z,6.10
2018-09-10T10:58:26.445Z,5.97
2018-09-10T11:00:55.267Z,5.57
2018-09-10T11:03:24.162Z,5.23
2018-09-10T11:05:53.010Z,7.00
2018-09-10T11:08:21.845Z,5.70
2018-09-10T11:10:50.648Z,5.03
2018-09-10T11:13:19.420Z,5.57
2018-09-10T11:15:48.250Z,5.17
2018-09-10T11:18:17.201Z,5.93
2018-09-10T11:20:46.093Z,5.40
2018-09-10T11:23:14.871Z,6.07
2018-09-10T11:25:43.727Z,6.20
2018-09-10T11:28:12.688Z,5.03
2018-09-10T11:30:41.457Z,5.53
2018-09-10T11:33:10.253Z,5.80
2018-09-10T11:35:39.085Z,5.80
2018-09-10T11:38:07.969Z,5.70
2018-09-10T11:40:36.772Z,5.17
2018-09-10T11:43:05.538Z,6.20
2018-09-10T11:45:34.594Z,5.77
2018-09-10T11:48:03.489Z,5.87
2018-09-10T11:50:32.329Z,5.70
2018-09-10T11:53:01.125Z,5.90
2018-09-10T11:55:29.953Z,6.10
2018-09-10T11:57:58.791Z,5.93
2018-09-10T12:00:27.640Z,6.33
2018-09-10T12:02:56.426Z,5.80
2018-09-10T12:05:25.187Z,6.60
2018-09-10T12:07:53.978Z,6.07
2018-09-10T12:10:22.785Z,5.77
2018-09-10T12:12:51.574Z,4.83
2018-09-10T12:15:20.368Z,5.67
2018-09-10T12:17:49.142Z,6.00
2018-09-10T12:20:18.063Z,5.27
2018-09-10T12:22:46.841Z,6.10
2018-09-10T12:25:15.679Z,6.10
2018-09-10T12:27:44.533Z,6.13
2018-09-10T12:30:13.336Z,5.70
2018-09-10T12:32:42.188Z,4.57
2018-09-10T12:35:11.023Z,5.70
2018-09-10T12:37:39.790Z,6.30
2018-09-10T12:40:08.592Z,5.90
2018-09-10T12:42:37.364Z,6.00
2018-09-10T12:45:06.959Z,5.07
2018-09-10T12:47:35.853Z,5.70
2018-09-10T12:50:05.155Z,4.90
2018-09-10T12:52:33.949Z,5.17
2018-09-10T12:55:02.772Z,4.53
2018-09-10T12:57:31.539Z,5.40
2018-09-10T13:00:00.350Z,5.40
2018-09-10T13:02:29.832Z,6.27
2018-09-10T13:04:58.635Z,5.33
2018-09-10T13:07:27.407Z,5.70
2018-09-10T13:09:56.283Z,5.27
2018-09-10T13:12:25.105Z,5.30
2018-09-10T13:14:53.990Z,4.90
2018-09-10T13:17:22.847Z,5.70
2018-09-10T13:19:51.602Z,5.60
2018-09-10T13:22:20.378Z,5.33
2018-09-10T13:24:49.341Z,5.60
2018-09-10T13:27:18.127Z,5.63
2018-09-10T13:29:46.965Z,6.87
2018-09-10T13:32:15.967Z,5.80
2018-09-10T13:34:44.751Z,5.50
2018-09-10T13:37:13.539Z,4.77
2018-09-10T13:39:42.377Z,6.07
2018-09-10T13:42:11.165Z,5.20
2018-09-10T13:44:40.640Z,5.33
2018-09-10T13:47:09.572Z,4.93
2018-09-10T13:49:38.394Z,5.50
2018-09-10T13:52:07.214Z,4.97
2018-09-10T13:54:36.105Z,5.60
2018-09-10T13:57:04.912Z,5.20
2018-09-10T13:59:33.729Z,5.10
2018-09-10T14:02:02.617Z,5.13
2018-09-10T14:04:31.418Z,5.67
2018-09-10T14:07:00.276Z,5.83
2018-09-10T14:09:29.048Z,5.10
2018-09-10T14:11:57.933Z,4.97
2018-09-10T14:14:26.767Z,5.30
2018-09-10T14:16:55.696Z,4.37
2018-09-10T14:19:24.633Z,4.47
2018-09-10T14:21:53.465Z,4.30
2018-09-10T14:24:22.276Z,5.10
2018-09-10T14:26:51.103Z,5.50
2018-09-10T14:29:19.891Z,4.83
2018-09-10T14:31:48.794Z,5.47
2018-09-10T14:34:17.630Z,4.47
2018-09-10T14:36:46.818Z,4.90
2018-09-10T14:39:15.610Z,5.37
2018-09-10T14:41:44.486Z,4.33
2018-09-10T14:44:13.381Z,4.97
2018-09-10T14:46:42.213Z,4.83
2018-09-10T14:49:11.054Z,4.90
2018-09-10T14:51:39.940Z,5.43
2018-09-10T14:54:08.790Z,5.27
2018-09-10T14:56:37.614Z,4.83
2018-09-10T14:59:06.503Z,6.23
2018-09-10T15:01:35.255Z,5.20
2018-09-10T15:04:04.081Z,5.10
2018-09-10T15:06:32.866Z,4.90
2018-09-10T15:09:01.661Z,4.90
2018-09-10T15:11:30.454Z,4.73
2018-09-10T15:13:59.324Z,4.30
2018-09-10T15:16:28.087Z,5.40
2018-09-10T15:18:57.033Z,5.03
2018-09-10T15:21:25.979Z,6.37
2018-09-10T15:23:54.778Z,5.17
2018-09-10T15:26:24.240Z,4.90
2018-09-10T15:28:53.017Z,4.80
2018-09-10T15:31:21.823Z,5.20
2018-09-10T15:33:50.690Z,4.90
2018-09-10T15:36:19.523Z,4.53
2018-09-10T15:38:48.291Z,4.73
2018-09-10T15:41:17.206Z,5.17
2018-09-10T15:43:46.088Z,5.47
2018-09-10T15:46:14.903Z,4.87
2018-09-10T15:48:43.646Z,5.13
2018-09-10T15:51:12.461Z,4.67
2018-09-10T15:53:41.454Z,4.90
2018-09-10T15:56:10.382Z,5.73
2018-09-10T15:58:39.170Z,5.00
2018-09-10T16:01:07.981Z,5.70
2018-09-10T16:03:36.843Z,4.80
2018-09-10T16:06:05.644Z,4.90
2018-09-10T16:08:34.486Z,4.67
2018-09-10T16:11:03.247Z,5.40
2018-09-10T16:13:31.995Z,4.47
2018-09-10T16:16:00.833Z,4.97
2018-09-10T16:18:29.679Z,4.67
2018-09-10T16:20:58.426Z,5.27
2018-09-10T16:23:27.323Z,5.57
2018-09-10T16:25:56.314Z,4.80
2018-09-10T16:28:25.156Z,4.93
2018-09-10T16:30:54.037Z,4.67
2018-09-10T16:33:23.030Z,4.50
2018-09-10T16:35:51.916Z,4.27
2018-09-10T16:38:20.822Z,4.97
2018-09-10T16:40:49.560Z,5.03
2018-09-10T16:43:18.442Z,5.00
2018-09-10T16:45:47.199Z,4.53
2018-09-10T16:48:16.020Z,5.00
2018-09-10T16:50:45.008Z,5.10
2018-09-10T16:53:13.802Z,5.10
2018-09-10T16:55:42.615Z,4.77
2018-09-10T16:58:11.412Z,5.27
2018-09-10T17:00:40.307Z,5.77
2018-09-10T17:03:09.279Z,6.00
2018-09-10T17:05:38.094Z,5.47
2018-09-10T17:08:07.228Z,5.40
2018-09-10T17:10:35.997Z,5.27
2018-09-10T17:13:04.911Z,5.40
2018-09-10T17:15:33.752Z,4.97
2018-09-10T17:18:02.595Z,5.03
2018-09-10T17:20:31.369Z,5.97
2018-09-10T17:23:00.394Z,5.20
2018-09-10T17:25:29.222Z,5.30
2018-09-10T17:27:58.035Z,4.97
2018-09-10T17:30:26.918Z,4.83
2018-09-10T17:32:55.948Z,5.27
2018-09-10T17:35:24.763Z,5.13
2018-09-10T17:37:53.658Z,5.27
2018-09-10T17:40:22.443Z,4.97
2018-09-10T17:42:51.472Z,5.43
2018-09-10T17:45:20.271Z,5.57
2018-09-10T17:47:49.154Z,5.50
2018-09-10T17:50:17.946Z,5.90
2018-09-10T17:52:46.935Z,5.50
2018-09-10T17:55:15.759Z,5.67
2018-09-10T17:57:44.561Z,5.23
2018-09-10T18:00:15.902Z,6.03
2018-09-10T18:02:44.696Z,5.23
2018-09-10T18:05:13.475Z,5.90
2018-09-10T18:07:42.358Z,5.57
2018-09-10T18:10:11.452Z,5.80
2018-09-10T18:12:40.263Z,5.63
2018-09-10T18:15:09.452Z,5.50
2018-09-10T18:17:38.279Z,5.43
2018-09-10T18:20:07.494Z,5.77
2018-09-10T18:22:36.606Z,6.27
2018-09-10T18:25:05.902Z,6.00
2018-09-10T18:27:34.663Z,6.43
2018-09-10T18:30:07.363Z,5.30
2018-09-10T18:32:36.498Z,5.87
2018-09-10T18:35:05.318Z,5.17
2018-09-10T18:37:34.123Z,6.00
2018-09-10T18:40:03.016Z,5.57
2018-09-10T18:42:32.045Z,5.53
2018-09-10T18:45:00.835Z,5.93
2018-09-10T18:47:30.335Z,5.90
2018-09-10T18:50:00.008Z,5.33
2018-09-10T18:52:28.819Z,5.70
2018-09-10T18:54:57.622Z,5.50
2018-09-10T18:57:26.445Z,5.87
2018-09-10T18:59:55.254Z,6.37
2018-09-10T19:02:24.086Z,6.00
2018-09-10T19:04:52.870Z,5.80
2018-09-10T19:07:21.650Z,6.43
2018-09-10T19:09:50.508Z,6.20
2018-09-10T19:12:20.787Z,6.40
2018-09-10T19:14:49.772Z,5.83
2018-09-10T19:17:18.571Z,5.60
2018-09-10T19:19:47.476Z,6.00
2018-09-10T19:22:17.350Z,6.27
2018-09-10T19:24:46.214Z,6.00
2018-09-10T19:27:15.059Z,5.47
2018-09-10T19:29:43.921Z,6.23
2018-09-10T19:32:12.754Z,6.30
2018-09-10T19:34:42.030Z,6.33
2018-09-10T19:37:10.848Z,6.23
2018-09-10T19:39:40.120Z,7.87
2018-09-10T19:42:09.193Z,6.50
2018-09-10T19:44:37.973Z,7.23
2018-09-10T19:47:07.227Z,7.37
2018-09-10T19:49:36.051Z,6.33
2018-09-10T19:52:05.296Z,6.30
2018-09-10T19:54:34.087Z,6.20
2018-09-10T19:57:02.942Z,5.93
2018-09-10T19:59:33.451Z,7.23
2018-09-10T20:02:02.762Z,6.27
2018-09-10T20:04:31.536Z,6.33
2018-09-10T20:07:00.470Z,6.43
2018-09-10T20:09:29.374Z,6.43
2018-09-10T20:11:58.182Z,6.13
2018-09-10T20:14:26.986Z,6.20
2018-09-10T20:16:55.893Z,6.67
2018-09-10T20:19:24.910Z,6.93
2018-09-10T20:21:53.753Z,6.90
2018-09-10T20:24:22.749Z,6.53
2018-09-10T20:26:51.554Z,6.40
2018-09-10T20:29:20.415Z,6.37
2018-09-10T20:31:49.264Z,6.33
2018-09-10T20:34:18.092Z,7.07
2018-09-10T20:36:46.936Z,6.20
2018-09-10T20:39:15.784Z,6.17
2018-09-10T20:41:44.570Z,6.80
2018-09-10T20:44:13.352Z,6.57
2018-09-10T20:46:42.110Z,7.13
2018-09-10T20:49:10.897Z,6.50
2018-09-10T20:51:39.709Z,7.13
2018-09-10T20:54:08.506Z,5.97
2018-09-10T20:56:37.288Z,6.60
2018-09-10T20:59:06.109Z,7.10
2018-09-10T21:01:35.255Z,6.53
2018-09-10T21:04:04.078Z,6.77
2018-09-10T21:06:33.038Z,7.10
2018-09-10T21:09:01.815Z,7.30
2018-09-10T21:11:30.602Z,7.27
2018-09-10T21:13:59.401Z,6.80
2018-09-10T21:16:28.211Z,6.40
2018-09-10T21:18:56.962Z,6.73
2018-09-10T21:21:25.756Z,6.07
2018-09-10T21:23:54.585Z,6.00
2018-09-10T21:26:23.453Z,6.20
2018-09-10T21:28:52.362Z,5.50
2018-09-10T21:31:21.280Z,5.90
2018-09-10T21:33:50.127Z,6.47
2018-09-10T21:36:19.084Z,7.67
2018-09-10T21:38:47.872Z,6.03
2018-09-10T21:41:16.682Z,7.57
2018-09-10T21:43:45.466Z,7.00
2018-09-10T21:46:14.344Z,7.33
2018-09-10T21:48:43.384Z,7.33
2018-09-10T21:51:12.210Z,5.77
2018-09-10T21:53:41.323Z,6.37
2018-09-10T21:56:10.317Z,6.07
2018-09-10T21:58:41.737Z,5.67
2018-09-10T22:01:12.147Z,7.03
2018-09-10T22:03:41.810Z,6.30
2018-09-10T22:06:11.381Z,7.63
2018-09-10T22:08:40.383Z,6.83
2018-09-10T22:11:09.453Z,6.50
2018-09-10T22:13:38.356Z,6.27
2018-09-10T22:16:07.655Z,6.20
2018-09-10T22:18:36.530Z,5.93
2018-09-10T22:21:05.485Z,6.20
2018-09-10T22:23:34.353Z,5.97
2018-09-10T22:26:03.132Z,5.73
2018-09-10T22:28:31.983Z,5.50
2018-09-10T22:31:00.946Z,5.33
2018-09-10T22:33:29.824Z,5.67
2018-09-10T22:35:58.753Z,5.60
2018-09-10T22:38:27.554Z,5.47
2018-09-10T22:40:56.344Z,5.73
2018-09-10T22:43:25.267Z,5.60
2018-09-10T22:45:54.174Z,5.33
2018-09-10T22:48:23.007Z,5.77
2018-09-10T22:50:51.922Z,5.50
2018-09-10T22:53:20.791Z,5.00
2018-09-10T22:55:49.565Z,5.07
2018-09-10T22:58:18.337Z,5.63
2018-09-10T23:00:47.489Z,4.90
2018-09-10T23:03:16.377Z,5.37
2018-09-10T23:05:45.216Z,5.07
2018-09-10T23:08:13.977Z,5.27
2018-09-10T23:10:42.819Z,5.57
2018-09-10T23:13:11.691Z,5.07
2018-09-10T23:15:40.542Z,5.80
2018-09-10T23:18:09.420Z,6.27
2018-09-10T23:20:38.341Z,5.47
2018-09-10T23:23:07.306Z,5.20
2018-09-10T23:25:36.224Z,4.67
2018-09-10T23:28:05.093Z,5.60
2018-09-10T23:30:34.029Z,5.50
2018-09-10T23:33:02.875Z,4.63
2018-09-10T23:35:31.649Z,4.80
2018-09-10T23:38:00.419Z,5.50
2018-09-10T23:40:29.235Z,5.37
2018-09-10T23:42:58.118Z,5.13
2018-09-10T23:45:26.995Z,5.40
2018-09-10T23:47:55.884Z,4.80
2018-09-10T23:50:24.699Z,5.23
2018-09-10T23:52:53.562Z,5.07
2018-09-10T23:55:22.686Z,4.73
2018-09-10T23:57:51.523Z,6.17
